sensor_id;sensor_type;location;lat;lon;timestamp;noise_LAeq;noise_LA_min;noise_LA_max;noise_LA01;noise_LA95
46749;Laerm;33775;47.992;11.864;2023-07-31T00:00:40;37.40;32.35;51.49;;
46749;Laerm;33775;47.992;11.864;2023-07-31T00:03:05;37.31;32.93;39.81;;
46749;Laerm;33775;47.992;11.864;2023-07-31T00:05:30;37.34;32.93;40.03;;
46749;Laerm;33775;47.992;11.864;2023-07-31T00:07:55;37.33;32.93;40.13;;
46749;Laerm;33775;47.992;11.864;2023-07-31T00:10:20;37.31;33.44;40.43;;
46749;Laerm;33775;47.992;11.864;2023-07-31T00:12:46;37.30;32.93;40.89;;
46749;Laerm;33775;47.992;11.864;2023-07-31T00:15:11;37.31;31.68;40.13;;
46749;Laerm;33775;47.992;11.864;2023-07-31T00:17:38;37.33;33.44;40.33;;
46749;Laerm;33775;47.992;11.864;2023-07-31T00:20:03;37.33;32.93;40.23;;
46749;Laerm;33775;47.992;11.864;2023-07-31T00:22:28;37.29;32.93;40.43;;
46749;Laerm;33775;47.992;11.864;2023-07-31T00:24:53;37.29;32.93;40.03;;
46749;Laerm;33775;47.992;11.864;2023-07-31T00:27:19;37.30;33.44;39.81;;
46749;Laerm;33775;47.992;11.864;2023-07-31T00:29:44;37.31;32.93;39.81;;
46749;Laerm;33775;47.992;11.864;2023-07-31T00:32:09;37.30;32.35;39.92;;
46749;Laerm;33775;47.992;11.864;2023-07-31T00:34:34;37.25;32.93;39.92;;
46749;Laerm;33775;47.992;11.864;2023-07-31T00:36:59;37.22;32.93;40.23;;
46749;Laerm;33775;47.992;11.864;2023-07-31T00:39:24;37.18;33.09;40.71;;
46749;Laerm;33775;47.992;11.864;2023-07-31T00:41:50;37.10;33.09;39.70;;
46749;Laerm;33775;47.992;11.864;2023-07-31T00:44:15;37.11;32.93;39.81;;
46749;Laerm;33775;47.992;11.864;2023-07-31T00:46:40;37.08;32.93;40.13;;
46749;Laerm;33775;47.992;11.864;2023-07-31T00:49:05;37.05;32.93;39.92;;
46749;Laerm;33775;47.992;11.864;2023-07-31T00:51:31;37.07;33.44;39.70;;
46749;Laerm;33775;47.992;11.864;2023-07-31T00:53:56;37.06;32.35;39.81;;
46749;Laerm;33775;47.992;11.864;2023-07-31T00:56:22;37.06;32.93;39.81;;
46749;Laerm;33775;47.992;11.864;2023-07-31T00:58:48;37.14;32.35;39.81;;
46749;Laerm;33775;47.992;11.864;2023-07-31T01:01:13;37.13;32.93;40.13;;
46749;Laerm;33775;47.992;11.864;2023-07-31T01:03:39;37.09;31.68;39.81;;
46749;Laerm;33775;47.992;11.864;2023-07-31T01:11:02;37.06;32.93;39.70;;
46749;Laerm;33775;47.992;11.864;2023-07-31T01:13:32;36.98;30.89;39.34;;
46749;Laerm;33775;47.992;11.864;2023-07-31T01:15:57;36.98;31.68;39.81;;
46749;Laerm;33775;47.992;11.864;2023-07-31T01:18:22;36.99;32.35;39.70;;
46749;Laerm;33775;47.992;11.864;2023-07-31T01:20:50;36.95;32.35;39.92;;
46749;Laerm;33775;47.992;11.864;2023-07-31T01:26:05;36.91;32.35;39.70;;
46749;Laerm;33775;47.992;11.864;2023-07-31T01:31:07;36.96;32.35;39.81;;
46749;Laerm;33775;47.992;11.864;2023-07-31T01:33:32;36.89;30.89;39.81;;
46749;Laerm;33775;47.992;11.864;2023-07-31T01:35:58;36.84;29.92;40.03;;
46749;Laerm;33775;47.992;11.864;2023-07-31T01:38:23;36.80;32.35;39.57;;
46749;Laerm;33775;47.992;11.864;2023-07-31T01:40:52;36.77;30.89;39.81;;
46749;Laerm;33775;47.992;11.864;2023-07-31T01:43:18;36.72;30.89;39.58;;
46749;Laerm;33775;47.992;11.864;2023-07-31T01:45:43;36.74;30.89;39.81;;
46749;Laerm;33775;47.992;11.864;2023-07-31T01:48:08;36.80;31.68;39.70;;
46749;Laerm;33775;47.992;11.864;2023-07-31T01:50:33;36.88;30.89;39.58;;
46749;Laerm;33775;47.992;11.864;2023-07-31T01:52:58;36.88;32.35;39.58;;
46749;Laerm;33775;47.992;11.864;2023-07-31T01:55:24;36.87;31.68;39.92;;
46749;Laerm;33775;47.992;11.864;2023-07-31T01:57:49;36.81;32.35;39.58;;
46749;Laerm;33775;47.992;11.864;2023-07-31T02:00:14;36.82;31.68;39.68;;
46749;Laerm;33775;47.992;11.864;2023-07-31T02:02:39;36.85;30.89;39.58;;
46749;Laerm;33775;47.992;11.864;2023-07-31T02:05:05;36.83;32.35;40.13;;
46749;Laerm;33775;47.992;11.864;2023-07-31T02:07:30;36.81;32.35;39.46;;
46749;Laerm;33775;47.992;11.864;2023-07-31T02:09:55;36.81;31.68;39.58;;
46749;Laerm;33775;47.992;11.864;2023-07-31T02:12:20;36.79;30.89;39.92;;
46749;Laerm;33775;47.992;11.864;2023-07-31T02:14:46;36.76;31.68;39.81;;
46749;Laerm;33775;47.992;11.864;2023-07-31T02:17:11;36.77;29.92;39.81;;
46749;Laerm;33775;47.992;11.864;2023-07-31T02:19:36;36.77;32.35;39.81;;
46749;Laerm;33775;47.992;11.864;2023-07-31T02:22:01;36.76;31.68;39.70;;
46749;Laerm;33775;47.992;11.864;2023-07-31T02:24:26;36.82;30.89;40.13;;
46749;Laerm;33775;47.992;11.864;2023-07-31T02:26:51;36.88;28.67;48.46;;
46749;Laerm;33775;47.992;11.864;2023-07-31T02:29:17;37.13;31.68;55.32;;
46749;Laerm;33775;47.992;11.864;2023-07-31T02:31:42;37.16;31.68;50.33;;
46749;Laerm;33775;47.992;11.864;2023-07-31T02:34:07;37.03;30.89;48.20;;
46749;Laerm;33775;47.992;11.864;2023-07-31T02:36:32;36.94;32.35;49.10;;
46749;Laerm;33775;47.992;11.864;2023-07-31T02:38:57;37.03;28.67;49.70;;
46749;Laerm;33775;47.992;11.864;2023-07-31T02:41:23;37.71;28.67;54.39;;
46749;Laerm;33775;47.992;11.864;2023-07-31T02:43:48;37.48;31.68;60.03;;
46749;Laerm;33775;47.992;11.864;2023-07-31T02:46:13;36.92;30.89;48.40;;
46749;Laerm;33775;47.992;11.864;2023-07-31T02:48:38;37.20;5.00;55.99;;
46749;Laerm;33775;47.992;11.864;2023-07-31T02:51:03;37.23;29.92;51.55;;
46749;Laerm;33775;47.992;11.864;2023-07-31T02:53:29;37.40;30.89;54.22;;
46749;Laerm;33775;47.992;11.864;2023-07-31T02:55:54;37.06;30.54;55.32;;
46749;Laerm;33775;47.992;11.864;2023-07-31T02:58:19;36.71;29.92;39.70;;
46749;Laerm;33775;47.992;11.864;2023-07-31T03:00:44;36.66;30.89;39.70;;
46749;Laerm;33775;47.992;11.864;2023-07-31T03:03:09;36.67;30.89;39.70;;
46749;Laerm;33775;47.992;11.864;2023-07-31T03:05:35;36.70;31.68;39.58;;
46749;Laerm;33775;47.992;11.864;2023-07-31T03:08:00;36.68;30.89;39.70;;
46749;Laerm;33775;47.992;11.864;2023-07-31T03:10:25;36.72;28.67;39.81;;
46749;Laerm;33775;47.992;11.864;2023-07-31T03:12:51;36.75;31.68;39.58;;
46749;Laerm;33775;47.992;11.864;2023-07-31T03:15:16;36.73;31.68;39.46;;
46749;Laerm;33775;47.992;11.864;2023-07-31T03:17:41;36.68;30.89;39.70;;
46749;Laerm;33775;47.992;11.864;2023-07-31T03:20:06;36.69;29.92;39.46;;
46749;Laerm;33775;47.992;11.864;2023-07-31T03:22:31;36.61;30.89;39.34;;
46749;Laerm;33775;47.992;11.864;2023-07-31T03:24:57;36.61;31.68;39.58;;
46749;Laerm;33775;47.992;11.864;2023-07-31T03:27:22;36.67;30.89;39.21;;
46749;Laerm;33775;47.992;11.864;2023-07-31T03:29:47;36.64;31.68;39.46;;
46749;Laerm;33775;47.992;11.864;2023-07-31T03:32:14;36.66;31.68;47.12;;
46749;Laerm;33775;47.992;11.864;2023-07-31T03:34:39;36.64;30.89;42.82;;
46749;Laerm;33775;47.992;11.864;2023-07-31T03:37:05;36.59;29.92;39.92;;
46749;Laerm;33775;47.992;11.864;2023-07-31T03:39:30;36.58;29.92;39.81;;
46749;Laerm;33775;47.992;11.864;2023-07-31T03:41:55;36.59;30.89;39.92;;
46749;Laerm;33775;47.992;11.864;2023-07-31T03:44:20;36.58;29.92;39.81;;
46749;Laerm;33775;47.992;11.864;2023-07-31T03:46:46;36.59;29.92;39.46;;
46749;Laerm;33775;47.992;11.864;2023-07-31T03:49:11;36.60;30.89;39.46;;
46749;Laerm;33775;47.992;11.864;2023-07-31T03:51:36;36.60;29.57;39.46;;
46749;Laerm;33775;47.992;11.864;2023-07-31T03:54:01;36.58;29.92;39.34;;
46749;Laerm;33775;47.992;11.864;2023-07-31T03:56:26;36.59;30.89;39.46;;
46749;Laerm;33775;47.992;11.864;2023-07-31T03:58:51;36.61;30.89;39.46;;
46749;Laerm;33775;47.992;11.864;2023-07-31T04:01:17;36.63;30.89;39.70;;
46749;Laerm;33775;47.992;11.864;2023-07-31T04:03:42;36.61;29.92;39.46;;
46749;Laerm;33775;47.992;11.864;2023-07-31T04:06:08;36.60;29.57;39.78;;
46749;Laerm;33775;47.992;11.864;2023-07-31T04:08:33;36.60;26.91;39.21;;
46749;Laerm;33775;47.992;11.864;2023-07-31T04:10:58;36.59;30.89;39.46;;
46749;Laerm;33775;47.992;11.864;2023-07-31T04:13:23;36.60;29.92;39.58;;
46749;Laerm;33775;47.992;11.864;2023-07-31T04:15:49;36.60;30.89;39.46;;
46749;Laerm;33775;47.992;11.864;2023-07-31T04:18:15;36.67;28.67;39.70;;
46749;Laerm;33775;47.992;11.864;2023-07-31T04:20:41;36.68;28.67;39.70;;
46749;Laerm;33775;47.992;11.864;2023-07-31T04:23:06;36.73;32.00;39.58;;
46749;Laerm;33775;47.992;11.864;2023-07-31T04:25:31;36.70;31.68;39.34;;
46749;Laerm;33775;47.992;11.864;2023-07-31T04:27:56;36.69;29.92;39.92;;
46749;Laerm;33775;47.992;11.864;2023-07-31T04:30:21;36.69;31.68;39.46;;
46749;Laerm;33775;47.992;11.864;2023-07-31T04:32:47;36.75;31.68;39.46;;
46749;Laerm;33775;47.992;11.864;2023-07-31T04:35:12;36.72;29.92;39.81;;
46749;Laerm;33775;47.992;11.864;2023-07-31T04:37:37;36.75;28.67;39.46;;
46749;Laerm;33775;47.992;11.864;2023-07-31T04:40:03;36.75;30.89;39.46;;
46749;Laerm;33775;47.992;11.864;2023-07-31T04:42:28;36.78;31.68;39.46;;
46749;Laerm;33775;47.992;11.864;2023-07-31T04:44:54;36.81;31.68;39.92;;
46749;Laerm;33775;47.992;11.864;2023-07-31T04:47:19;36.82;31.68;39.70;;
46749;Laerm;33775;47.992;11.864;2023-07-31T04:49:44;36.87;31.68;39.81;;
46749;Laerm;33775;47.992;11.864;2023-07-31T04:52:09;36.92;32.35;39.70;;
46749;Laerm;33775;47.992;11.864;2023-07-31T04:54:35;36.95;32.35;39.81;;
46749;Laerm;33775;47.992;11.864;2023-07-31T04:57:00;37.01;32.93;39.70;;
46749;Laerm;33775;47.992;11.864;2023-07-31T04:59:25;37.00;32.35;39.58;;
46749;Laerm;33775;47.992;11.864;2023-07-31T05:01:50;36.95;32.35;39.81;;
46749;Laerm;33775;47.992;11.864;2023-07-31T05:04:15;36.84;32.35;39.81;;
46749;Laerm;33775;47.992;11.864;2023-07-31T05:06:41;36.78;31.68;39.81;;
46749;Laerm;33775;47.992;11.864;2023-07-31T05:09:06;36.82;31.68;39.92;;
46749;Laerm;33775;47.992;11.864;2023-07-31T05:11:31;36.84;32.00;40.03;;
46749;Laerm;33775;47.992;11.864;2023-07-31T05:13:56;36.95;28.67;39.70;;
46749;Laerm;33775;47.992;11.864;2023-07-31T05:16:21;37.03;32.35;39.46;;
46749;Laerm;33775;47.992;11.864;2023-07-31T05:18:47;37.10;32.93;40.23;;
46749;Laerm;33775;47.992;11.864;2023-07-31T05:21:12;37.18;32.35;39.92;;
46749;Laerm;33775;47.992;11.864;2023-07-31T05:23:37;37.29;32.35;40.03;;
46749;Laerm;33775;47.992;11.864;2023-07-31T05:26:05;37.33;33.44;40.13;;
46749;Laerm;33775;47.992;11.864;2023-07-31T05:28:31;37.34;32.93;40.03;;
46749;Laerm;33775;47.992;11.864;2023-07-31T05:31:00;37.36;32.35;39.92;;
46749;Laerm;33775;47.992;11.864;2023-07-31T05:33:25;37.38;31.68;40.03;;
46749;Laerm;33775;47.992;11.864;2023-07-31T05:35:50;37.38;33.44;39.92;;
46749;Laerm;33775;47.992;11.864;2023-07-31T05:38:16;37.40;33.44;40.03;;
46749;Laerm;33775;47.992;11.864;2023-07-31T05:40:42;37.39;32.93;40.03;;
46749;Laerm;33775;47.992;11.864;2023-07-31T05:43:07;37.34;32.35;40.43;;
46749;Laerm;33775;47.992;11.864;2023-07-31T05:45:33;37.22;31.68;39.81;;
46749;Laerm;33775;47.992;11.864;2023-07-31T05:47:58;37.07;30.89;40.13;;
46749;Laerm;33775;47.992;11.864;2023-07-31T05:50:23;37.07;31.68;39.92;;
46749;Laerm;33775;47.992;11.864;2023-07-31T05:52:48;37.11;32.93;40.13;;
46749;Laerm;33775;47.992;11.864;2023-07-31T05:55:13;37.17;32.93;39.70;;
46749;Laerm;33775;47.992;11.864;2023-07-31T05:57:39;37.18;32.35;39.92;;
46749;Laerm;33775;47.992;11.864;2023-07-31T06:00:04;37.19;29.92;40.43;;
46749;Laerm;33775;47.992;11.864;2023-07-31T06:02:30;37.18;32.93;39.92;;
46749;Laerm;33775;47.992;11.864;2023-07-31T06:04:58;37.20;30.89;40.33;;
46749;Laerm;33775;47.992;11.864;2023-07-31T06:07:23;37.23;32.35;39.81;;
46749;Laerm;33775;47.992;11.864;2023-07-31T06:09:48;37.21;32.93;40.03;;
46749;Laerm;33775;47.992;11.864;2023-07-31T06:12:14;37.19;32.35;39.92;;
46749;Laerm;33775;47.992;11.864;2023-07-31T06:14:42;37.18;32.93;39.92;;
46749;Laerm;33775;47.992;11.864;2023-07-31T06:17:07;37.21;32.93;39.81;;
46749;Laerm;33775;47.992;11.864;2023-07-31T06:19:33;37.24;33.44;39.70;;
46749;Laerm;33775;47.992;11.864;2023-07-31T06:21:58;37.28;32.93;40.23;;
46749;Laerm;33775;47.992;11.864;2023-07-31T06:24:23;37.29;32.93;39.81;;
46749;Laerm;33775;47.992;11.864;2023-07-31T06:26:48;37.32;33.44;40.23;;
46749;Laerm;33775;47.992;11.864;2023-07-31T06:29:15;37.37;32.35;40.33;;
46749;Laerm;33775;47.992;11.864;2023-07-31T06:31:41;37.33;32.93;39.92;;
46749;Laerm;33775;47.992;11.864;2023-07-31T06:34:06;37.30;32.35;40.33;;
46749;Laerm;33775;47.992;11.864;2023-07-31T06:36:31;37.33;32.93;39.92;;
46749;Laerm;33775;47.992;11.864;2023-07-31T06:38:56;37.32;32.35;40.03;;
46749;Laerm;33775;47.992;11.864;2023-07-31T06:41:21;37.35;31.68;40.03;;
46749;Laerm;33775;47.992;11.864;2023-07-31T06:43:46;37.33;32.35;40.13;;
46749;Laerm;33775;47.992;11.864;2023-07-31T06:46:12;37.31;33.44;39.92;;
46749;Laerm;33775;47.992;11.864;2023-07-31T06:48:37;37.30;32.93;40.03;;
46749;Laerm;33775;47.992;11.864;2023-07-31T06:51:02;37.32;32.93;39.70;;
46749;Laerm;33775;47.992;11.864;2023-07-31T06:53:28;37.32;32.93;40.13;;
46749;Laerm;33775;47.992;11.864;2023-07-31T06:55:53;37.34;33.44;40.23;;
46749;Laerm;33775;47.992;11.864;2023-07-31T06:58:18;37.35;33.44;39.92;;
46749;Laerm;33775;47.992;11.864;2023-07-31T07:00:43;37.35;32.93;40.33;;
46749;Laerm;33775;47.992;11.864;2023-07-31T07:03:09;37.37;33.44;40.03;;
46749;Laerm;33775;47.992;11.864;2023-07-31T07:05:34;37.37;32.93;40.03;;
46749;Laerm;33775;47.992;11.864;2023-07-31T07:07:59;37.37;33.44;40.13;;
46749;Laerm;33775;47.992;11.864;2023-07-31T07:10:24;37.36;33.44;40.23;;
46749;Laerm;33775;47.992;11.864;2023-07-31T07:12:50;37.36;33.90;39.81;;
46749;Laerm;33775;47.992;11.864;2023-07-31T07:15:15;37.38;31.68;40.03;;
46749;Laerm;33775;47.992;11.864;2023-07-31T07:17:40;37.38;32.35;39.81;;
46749;Laerm;33775;47.992;11.864;2023-07-31T07:20:06;37.39;32.93;40.71;;
46749;Laerm;33775;47.992;11.864;2023-07-31T07:22:31;37.40;32.93;40.13;;
46749;Laerm;33775;47.992;11.864;2023-07-31T07:24:56;37.37;32.93;40.23;;
46749;Laerm;33775;47.992;11.864;2023-07-31T07:27:21;37.38;32.00;40.23;;
46749;Laerm;33775;47.992;11.864;2023-07-31T07:29:47;37.40;32.93;40.13;;
46749;Laerm;33775;47.992;11.864;2023-07-31T07:32:12;37.36;32.93;40.33;;
46749;Laerm;33775;47.992;11.864;2023-07-31T07:34:37;37.39;33.44;40.33;;
46749;Laerm;33775;47.992;11.864;2023-07-31T07:37:03;37.41;32.93;40.03;;
46749;Laerm;33775;47.992;11.864;2023-07-31T07:39:28;37.40;32.35;40.80;;
46749;Laerm;33775;47.992;11.864;2023-07-31T07:41:53;37.43;31.68;40.13;;
46749;Laerm;33775;47.992;11.864;2023-07-31T07:44:19;37.45;33.44;40.03;;
46749;Laerm;33775;47.992;11.864;2023-07-31T07:46:44;37.49;33.44;40.23;;
46749;Laerm;33775;47.992;11.864;2023-07-31T07:49:09;37.49;33.44;40.13;;
46749;Laerm;33775;47.992;11.864;2023-07-31T07:51:34;37.49;33.44;40.03;;
46749;Laerm;33775;47.992;11.864;2023-07-31T07:54:00;37.50;33.90;40.33;;
46749;Laerm;33775;47.992;11.864;2023-07-31T07:56:25;37.50;33.44;40.53;;
46749;Laerm;33775;47.992;11.864;2023-07-31T07:58:51;37.49;32.93;40.33;;
46749;Laerm;33775;47.992;11.864;2023-07-31T08:01:16;37.47;33.44;40.33;;
46749;Laerm;33775;47.992;11.864;2023-07-31T08:03:41;37.44;32.93;40.23;;
46749;Laerm;33775;47.992;11.864;2023-07-31T08:06:06;37.50;32.93;40.03;;
46749;Laerm;33775;47.992;11.864;2023-07-31T08:08:34;37.51;32.93;40.43;;
46749;Laerm;33775;47.992;11.864;2023-07-31T08:10:59;37.49;33.90;40.62;;
46749;Laerm;33775;47.992;11.864;2023-07-31T08:13:24;37.49;33.44;40.13;;
46749;Laerm;33775;47.992;11.864;2023-07-31T08:15:49;37.47;33.90;40.33;;
46749;Laerm;33775;47.992;11.864;2023-07-31T08:18:14;37.49;33.44;40.33;;
46749;Laerm;33775;47.992;11.864;2023-07-31T08:20:40;37.50;33.44;40.43;;
46749;Laerm;33775;47.992;11.864;2023-07-31T08:23:06;37.48;33.44;40.43;;
46749;Laerm;33775;47.992;11.864;2023-07-31T08:25:33;37.49;32.93;40.33;;
46749;Laerm;33775;47.992;11.864;2023-07-31T08:27:59;37.47;32.93;40.33;;
46749;Laerm;33775;47.992;11.864;2023-07-31T08:30:24;37.47;33.44;40.03;;
46749;Laerm;33775;47.992;11.864;2023-07-31T08:32:49;37.52;33.90;40.03;;
46749;Laerm;33775;47.992;11.864;2023-07-31T08:35:14;37.52;33.44;40.23;;
46749;Laerm;33775;47.992;11.864;2023-07-31T08:37:40;37.48;33.09;40.13;;
46749;Laerm;33775;47.992;11.864;2023-07-31T08:40:05;37.54;33.90;40.13;;
46749;Laerm;33775;47.992;11.864;2023-07-31T08:42:31;37.51;33.44;40.43;;
46749;Laerm;33775;47.992;11.864;2023-07-31T08:44:57;37.52;32.93;40.23;;
46749;Laerm;33775;47.992;11.864;2023-07-31T08:47:23;37.50;32.93;40.33;;
46749;Laerm;33775;47.992;11.864;2023-07-31T08:49:49;37.50;33.44;40.62;;
46749;Laerm;33775;47.992;11.864;2023-07-31T08:52:15;37.50;32.93;40.33;;
46749;Laerm;33775;47.992;11.864;2023-07-31T08:54:40;37.49;33.44;40.63;;
46749;Laerm;33775;47.992;11.864;2023-07-31T08:57:06;37.50;32.93;40.23;;
46749;Laerm;33775;47.992;11.864;2023-07-31T08:59:31;37.48;32.35;40.23;;
46749;Laerm;33775;47.992;11.864;2023-07-31T09:02:01;37.49;32.00;40.03;;
46749;Laerm;33775;47.992;11.864;2023-07-31T09:04:29;37.47;30.89;40.13;;
46749;Laerm;33775;47.992;11.864;2023-07-31T09:06:57;37.49;31.68;40.43;;
46749;Laerm;33775;47.992;11.864;2023-07-31T09:09:24;37.47;32.35;40.62;;
46749;Laerm;33775;47.992;11.864;2023-07-31T09:11:49;37.49;32.93;40.13;;
46749;Laerm;33775;47.992;11.864;2023-07-31T09:14:15;37.47;32.93;40.03;;
46749;Laerm;33775;47.992;11.864;2023-07-31T09:19:25;37.49;33.44;40.33;;
46749;Laerm;33775;47.992;11.864;2023-07-31T09:21:51;37.47;32.93;40.13;;
46749;Laerm;33775;47.992;11.864;2023-07-31T09:24:24;37.48;32.93;40.23;;
46749;Laerm;33775;47.992;11.864;2023-07-31T09:26:49;37.45;32.93;40.13;;
46749;Laerm;33775;47.992;11.864;2023-07-31T09:29:18;37.49;33.44;40.71;;
46749;Laerm;33775;47.992;11.864;2023-07-31T09:31:44;37.49;31.68;40.13;;
46749;Laerm;33775;47.992;11.864;2023-07-31T09:34:10;37.48;32.35;40.03;;
46749;Laerm;33775;47.992;11.864;2023-07-31T09:36:45;37.48;33.44;40.03;;
46749;Laerm;33775;47.992;11.864;2023-07-31T09:39:11;37.48;32.93;40.53;;
46749;Laerm;33775;47.992;11.864;2023-07-31T09:41:40;37.49;32.93;40.33;;
46749;Laerm;33775;47.992;11.864;2023-07-31T09:44:05;37.50;33.44;40.13;;
46749;Laerm;33775;47.992;11.864;2023-07-31T09:46:31;37.47;33.44;40.62;;
46749;Laerm;33775;47.992;11.864;2023-07-31T09:49:09;37.50;32.35;40.13;;
46749;Laerm;33775;47.992;11.864;2023-07-31T09:51:35;37.49;32.93;40.03;;
46749;Laerm;33775;47.992;11.864;2023-07-31T09:54:03;37.49;32.93;40.33;;
46749;Laerm;33775;47.992;11.864;2023-07-31T09:56:28;37.49;33.44;40.36;;
46749;Laerm;33775;47.992;11.864;2023-07-31T09:58:54;37.48;32.93;40.62;;
46749;Laerm;33775;47.992;11.864;2023-07-31T10:01:20;37.51;32.93;40.23;;
46749;Laerm;33775;47.992;11.864;2023-07-31T10:03:45;37.48;31.68;40.43;;
46749;Laerm;33775;47.992;11.864;2023-07-31T10:06:11;37.54;33.44;40.03;;
46749;Laerm;33775;47.992;11.864;2023-07-31T10:08:37;37.51;32.93;40.03;;
46749;Laerm;33775;47.992;11.864;2023-07-31T10:11:02;37.48;32.35;40.33;;
46749;Laerm;33775;47.992;11.864;2023-07-31T10:13:29;37.54;33.09;40.62;;
46749;Laerm;33775;47.992;11.864;2023-07-31T10:15:56;37.49;32.35;40.13;;
46749;Laerm;33775;47.992;11.864;2023-07-31T10:18:23;37.48;32.35;40.33;;
46749;Laerm;33775;47.992;11.864;2023-07-31T10:20:49;37.42;29.92;40.33;;
46749;Laerm;33775;47.992;11.864;2023-07-31T10:23:14;37.41;32.35;40.13;;
46749;Laerm;33775;47.992;11.864;2023-07-31T10:25:40;37.45;31.68;40.03;;
46749;Laerm;33775;47.992;11.864;2023-07-31T10:28:07;37.45;32.93;40.23;;
46749;Laerm;33775;47.992;11.864;2023-07-31T10:30:33;37.43;32.93;40.23;;
46749;Laerm;33775;47.992;11.864;2023-07-31T10:32:59;37.33;32.35;40.23;;
46749;Laerm;33775;47.992;11.864;2023-07-31T10:35:25;37.38;32.35;40.13;;
46749;Laerm;33775;47.992;11.864;2023-07-31T10:37:50;37.43;30.89;40.33;;
46749;Laerm;33775;47.992;11.864;2023-07-31T10:40:22;37.39;32.35;40.13;;
46749;Laerm;33775;47.992;11.864;2023-07-31T10:42:52;37.40;32.35;40.53;;
46749;Laerm;33775;47.992;11.864;2023-07-31T10:45:31;37.35;31.68;40.23;;
46749;Laerm;33775;47.992;11.864;2023-07-31T10:48:03;37.31;32.35;40.13;;
46749;Laerm;33775;47.992;11.864;2023-07-31T10:50:29;37.32;31.68;40.03;;
46749;Laerm;33775;47.992;11.864;2023-07-31T10:52:55;37.32;32.93;40.43;;
46749;Laerm;33775;47.992;11.864;2023-07-31T10:57:47;37.34;32.93;40.43;;
46749;Laerm;33775;47.992;11.864;2023-07-31T11:05:22;37.21;29.92;40.03;;
46749;Laerm;33775;47.992;11.864;2023-07-31T11:08:10;37.18;30.54;40.23;;
46749;Laerm;33775;47.992;11.864;2023-07-31T11:10:35;37.08;31.68;40.03;;
46749;Laerm;33775;47.992;11.864;2023-07-31T11:13:00;37.01;32.35;39.92;;
46749;Laerm;33775;47.992;11.864;2023-07-31T11:15:26;37.03;29.92;40.13;;
46749;Laerm;33775;47.992;11.864;2023-07-31T11:17:51;37.04;29.92;40.43;;
46749;Laerm;33775;47.992;11.864;2023-07-31T11:20:16;37.73;31.33;65.12;;
46749;Laerm;33775;47.992;11.864;2023-07-31T11:22:42;37.10;31.68;40.62;;
46749;Laerm;33775;47.992;11.864;2023-07-31T11:25:08;37.13;32.35;40.03;;
46749;Laerm;33775;47.992;11.864;2023-07-31T11:27:38;37.17;30.89;40.33;;
46749;Laerm;33775;47.992;11.864;2023-07-31T11:30:03;37.28;31.68;40.03;;
46749;Laerm;33775;47.992;11.864;2023-07-31T11:32:29;37.30;32.93;40.13;;
46749;Laerm;33775;47.992;11.864;2023-07-31T11:34:54;37.17;31.68;40.03;;
46749;Laerm;33775;47.992;11.864;2023-07-31T11:37:19;37.12;32.93;40.62;;
46749;Laerm;33775;47.992;11.864;2023-07-31T11:39:58;37.12;31.68;40.23;;
46749;Laerm;33775;47.992;11.864;2023-07-31T11:42:23;37.09;31.68;40.23;;
46749;Laerm;33775;47.992;11.864;2023-07-31T11:44:48;37.09;30.89;39.81;;
46749;Laerm;33775;47.992;11.864;2023-07-31T11:47:13;37.13;32.35;40.23;;
46749;Laerm;33775;47.992;11.864;2023-07-31T11:49:38;37.22;31.68;40.13;;
46749;Laerm;33775;47.992;11.864;2023-07-31T11:52:04;37.29;30.89;40.03;;
46749;Laerm;33775;47.992;11.864;2023-07-31T11:54:29;37.28;31.68;40.13;;
46749;Laerm;33775;47.992;11.864;2023-07-31T11:56:54;37.15;30.89;39.70;;
46749;Laerm;33775;47.992;11.864;2023-07-31T11:59:22;37.23;32.35;40.13;;
46749;Laerm;33775;47.992;11.864;2023-07-31T12:01:47;37.21;29.92;40.08;;
46749;Laerm;33775;47.992;11.864;2023-07-31T12:04:15;37.08;31.68;40.03;;
46749;Laerm;33775;47.992;11.864;2023-07-31T12:06:40;37.07;29.92;40.43;;
46749;Laerm;33775;47.992;11.864;2023-07-31T12:09:06;37.12;32.35;40.33;;
46749;Laerm;33775;47.992;11.864;2023-07-31T12:11:31;37.09;30.89;40.33;;
46749;Laerm;33775;47.992;11.864;2023-07-31T12:13:56;37.13;28.67;40.13;;
46749;Laerm;33775;47.992;11.864;2023-07-31T12:16:25;37.08;30.89;39.92;;
46749;Laerm;33775;47.992;11.864;2023-07-31T12:18:50;37.18;30.89;40.53;;
46749;Laerm;33775;47.992;11.864;2023-07-31T12:21:16;37.13;32.35;40.71;;
46749;Laerm;33775;47.992;11.864;2023-07-31T12:23:41;37.12;31.68;40.13;;
46749;Laerm;33775;47.992;11.864;2023-07-31T12:26:10;37.04;31.68;40.03;;
46749;Laerm;33775;47.992;11.864;2023-07-31T12:28:42;37.09;31.68;40.13;;
46749;Laerm;33775;47.992;11.864;2023-07-31T12:31:09;37.11;32.35;40.33;;
46749;Laerm;33775;47.992;11.864;2023-07-31T12:33:35;37.11;30.89;39.81;;
46749;Laerm;33775;47.992;11.864;2023-07-31T12:36:04;37.14;30.89;39.70;;
46749;Laerm;33775;47.992;11.864;2023-07-31T12:38:30;37.10;28.67;39.58;;
46749;Laerm;33775;47.992;11.864;2023-07-31T12:40:55;37.06;30.89;40.71;;
46749;Laerm;33775;47.992;11.864;2023-07-31T12:43:20;36.99;30.89;39.70;;
46749;Laerm;33775;47.992;11.864;2023-07-31T12:45:46;36.89;30.89;39.81;;
46749;Laerm;33775;47.992;11.864;2023-07-31T12:48:12;36.87;31.68;39.92;;
46749;Laerm;33775;47.992;11.864;2023-07-31T12:50:38;36.90;31.68;40.13;;
46749;Laerm;33775;47.992;11.864;2023-07-31T12:53:04;36.91;31.68;40.13;;
46749;Laerm;33775;47.992;11.864;2023-07-31T12:55:29;36.93;31.68;39.81;;
46749;Laerm;33775;47.992;11.864;2023-07-31T12:57:55;37.03;31.68;40.43;;
46749;Laerm;33775;47.992;11.864;2023-07-31T13:00:20;36.94;30.89;40.08;;
46749;Laerm;33775;47.992;11.864;2023-07-31T13:02:46;36.95;30.89;40.33;;
46749;Laerm;33775;47.992;11.864;2023-07-31T13:05:11;36.94;29.92;39.81;;
46749;Laerm;33775;47.992;11.864;2023-07-31T13:07:38;36.95;30.89;39.70;;
46749;Laerm;33775;47.992;11.864;2023-07-31T13:10:03;36.93;30.89;40.33;;
46749;Laerm;33775;47.992;11.864;2023-07-31T13:12:28;36.93;31.68;39.70;;
46749;Laerm;33775;47.992;11.864;2023-07-31T13:14:54;36.81;28.67;39.81;;
46749;Laerm;33775;47.992;11.864;2023-07-31T13:17:19;36.83;30.89;39.92;;
46749;Laerm;33775;47.992;11.864;2023-07-31T13:19:45;36.87;29.92;39.81;;
46749;Laerm;33775;47.992;11.864;2023-07-31T13:22:10;36.90;31.68;39.81;;
46749;Laerm;33775;47.992;11.864;2023-07-31T13:24:35;36.84;29.92;39.81;;
46749;Laerm;33775;47.992;11.864;2023-07-31T13:27:00;36.92;29.57;40.27;;
46749;Laerm;33775;47.992;11.864;2023-07-31T13:29:25;36.95;31.68;40.08;;
46749;Laerm;33775;47.992;11.864;2023-07-31T13:31:51;36.91;29.92;40.03;;
46749;Laerm;33775;47.992;11.864;2023-07-31T13:34:17;36.97;32.35;40.13;;
46749;Laerm;33775;47.992;11.864;2023-07-31T13:36:42;36.92;30.54;39.81;;
46749;Laerm;33775;47.992;11.864;2023-07-31T13:39:07;36.86;29.92;40.03;;
46749;Laerm;33775;47.992;11.864;2023-07-31T13:41:32;36.77;30.89;39.58;;
46749;Laerm;33775;47.992;11.864;2023-07-31T13:43:58;36.81;31.68;39.81;;